Time;durP1;ratioP1;P1;durP2;ratioP2;P2;SDS_P1;SDS_P2;PMS_P1;PMS_P2;Temp;Humidity;BMP_temperature;BMP_pressure;BME280_temperature;BME280_humidity;BME280_pressure;Samples;Min_cycle;Max_cycle;Signal;HPM_P1;HPM_P2
2021/09/14 00:00:41;;;;;;;6.13;5.63;;;19.90;36.40;;;;;;10331704;28;20230;-71
2021/09/14 00:05:46;;;;;;;6.20;5.70;;;19.90;36.40;;;;;;10356561;23;20301;-70
2021/09/14 00:10:49;;;;;;;5.67;5.10;;;20.00;36.50;;;;;;10377367;28;20232;-70
2021/09/14 00:15:53;;;;;;;5.90;5.50;;;19.90;36.40;;;;;;10365525;28;20738;-70
2021/09/14 00:20:57;;;;;;;6.27;5.77;;;19.90;36.40;;;;;;10366758;28;20230;-70
2021/09/14 00:26:00;;;;;;;6.70;6.10;;;19.90;36.40;;;;;;10365513;28;20919;-70
2021/09/14 00:31:05;;;;;;;6.47;5.87;;;19.90;36.40;;;;;;10374928;28;20272;-70
2021/09/14 00:36:09;;;;;;;6.33;5.83;;;19.90;36.40;;;;;;10361738;28;20238;-71
2021/09/14 00:41:13;;;;;;;5.93;5.50;;;19.80;36.30;;;;;;10358279;28;20230;-70
2021/09/14 00:46:16;;;;;;;6.77;6.17;;;19.80;36.30;;;;;;10375422;28;20234;-70
2021/09/14 00:51:20;;;;;;;6.60;6.03;;;19.70;36.20;;;;;;10367457;28;20226;-70
2021/09/14 00:56:25;;;;;;;6.53;5.93;;;19.60;36.30;;;;;;10356559;28;20238;-70
2021/09/14 01:01:28;;;;;;;5.13;4.73;;;19.50;36.10;;;;;;10362175;28;20312;-70
2021/09/14 01:06:34;;;;;;;5.63;5.13;;;19.40;36.10;;;;;;10371136;28;20226;-70
2021/09/14 01:11:37;;;;;;;5.10;4.60;;;19.40;36.80;;;;;;10369390;28;20245;-70
2021/09/14 01:16:41;;;;;;;4.83;4.53;;;19.40;36.30;;;;;;10369751;28;20765;-70
2021/09/14 01:21:46;;;;;;;5.73;5.30;;;19.40;36.60;;;;;;10378452;28;20250;-70
2021/09/14 01:26:52;;;;;;;5.20;4.80;;;19.30;36.70;;;;;;10352016;28;20226;-70
2021/09/14 01:31:55;;;;;;;5.60;5.20;;;19.30;37.00;;;;;;10380263;28;20221;-70
2021/09/14 01:36:58;;;;;;;6.77;4.97;;;19.30;36.60;;;;;;10364233;28;20233;-70
2021/09/14 01:42:03;;;;;;;6.30;5.80;;;19.20;36.60;;;;;;10366591;28;20722;-70
2021/09/14 01:47:07;;;;;;;5.33;4.93;;;19.20;37.00;;;;;;10364469;28;20321;-70
2021/09/14 01:52:10;;;;;;;5.93;5.40;;;19.20;36.70;;;;;;10375874;28;20227;-70
2021/09/14 01:57:15;;;;;;;5.63;5.23;;;19.10;36.70;;;;;;10365970;28;20699;-70
2021/09/14 02:02:24;;;;;;;5.90;5.50;;;19.10;37.10;;;;;;10364470;28;20236;-70
2021/09/14 02:24:20;;;;;;;5.07;4.73;;;18.90;36.50;;;;;;10345951;28;20230;-70
2021/09/14 02:40:32;;;;;;;4.80;4.50;;;18.70;37.00;;;;;;10360584;28;20240;-70
2021/09/14 02:56:35;;;;;;;5.80;4.70;;;18.60;37.10;;;;;;10359950;28;20274;-70
2021/09/14 03:01:40;;;;;;;6.40;5.80;;;18.60;37.40;;;;;;10352915;28;20236;-70
2021/09/14 03:06:43;;;;;;;6.07;5.67;;;18.60;37.20;;;;;;10358547;28;20238;-70
2021/09/14 03:11:47;;;;;;;5.50;5.00;;;18.50;36.90;;;;;;10358406;28;20226;-70
2021/09/14 03:16:51;;;;;;;4.97;4.67;;;18.30;37.00;;;;;;10361894;28;20245;-70
2021/09/14 03:21:54;;;;;;;5.00;4.60;;;18.20;37.50;;;;;;10355269;28;20222;-70
2021/09/14 03:26:58;;;;;;;4.80;4.40;;;18.20;37.60;;;;;;10371622;28;20230;-70
2021/09/14 03:32:03;;;;;;;5.17;4.77;;;18.20;37.60;;;;;;10362036;28;20591;-70
2021/09/14 03:37:07;;;;;;;4.53;4.23;;;18.20;38.10;;;;;;10347340;28;20246;-70
2021/09/14 03:42:10;;;;;;;5.13;4.70;;;18.20;37.80;;;;;;10364822;28;20613;-70
2021/09/14 03:47:14;;;;;;;5.77;5.23;;;18.20;37.70;;;;;;10373794;28;20230;-70
2021/09/14 03:52:18;;;;;;;5.90;5.43;;;18.20;38.00;;;;;;10365283;28;20234;-70
2021/09/14 03:57:21;;;;;;;5.27;4.87;;;18.20;37.90;;;;;;10358673;28;20242;-70
2021/09/14 04:02:33;;;;;;;5.33;4.93;;;18.10;37.50;;;;;;10363993;28;20876;-70
2021/09/14 04:07:50;;;;;;;5.40;5.00;;;18.10;38.00;;;;;;10357677;28;20231;-70
2021/09/14 04:12:54;;;;;;;5.93;5.10;;;18.10;37.90;;;;;;10354604;28;20218;-70
2021/09/14 04:17:59;;;;;;;5.13;4.70;;;18.00;37.80;;;;;;10345648;28;20233;-71
2021/09/14 04:23:02;;;;;;;5.30;4.80;;;18.00;38.00;;;;;;10351940;28;20214;-70
2021/09/14 04:28:06;;;;;;;5.40;4.90;;;18.00;37.70;;;;;;10358793;28;20236;-71
2021/09/14 04:33:10;;;;;;;6.47;5.33;;;18.00;37.90;;;;;;10347312;28;20234;-71
2021/09/14 04:38:13;;;;;;;5.10;4.60;;;17.90;38.20;;;;;;10347415;28;20231;-71
2021/09/14 04:43:17;;;;;;;4.60;4.30;;;17.90;38.00;;;;;;10347680;28;20227;-71
2021/09/14 04:48:21;;;;;;;4.80;4.40;;;17.90;38.10;;;;;;10364055;28;20240;-70
2021/09/14 04:53:24;;;;;;;5.03;4.63;;;17.90;38.40;;;;;;10340961;28;20230;-70
2021/09/14 04:58:28;;;;;;;4.83;4.43;;;17.90;38.20;;;;;;10359600;28;20236;-69
2021/09/14 05:03:32;;;;;;;4.67;4.37;;;17.90;39.00;;;;;;10379004;28;20226;-69
2021/09/14 05:08:35;;;;;;;4.73;4.43;;;17.90;38.50;;;;;;10376453;28;20230;-69
2021/09/14 05:13:39;;;;;;;5.80;4.50;;;17.90;38.30;;;;;;10367905;28;20947;-69
2021/09/14 05:18:48;;;;;;;5.47;4.97;;;17.90;38.60;;;;;;10378484;28;20226;-69
2021/09/14 05:23:51;;;;;;;5.00;4.60;;;18.00;39.10;;;;;;10361742;28;20226;-69
2021/09/14 05:28:54;;;;;;;5.90;5.40;;;18.00;38.80;;;;;;10360501;28;20229;-69
2021/09/14 05:33:59;;;;;;;5.70;5.17;;;18.00;38.90;;;;;;10360675;28;20233;-69
2021/09/14 05:39:03;;;;;;;6.00;5.50;;;18.00;39.30;;;;;;10357244;28;20230;-70
2021/09/14 05:44:06;;;;;;;5.93;5.43;;;18.00;39.00;;;;;;10351178;28;20238;-70
2021/09/14 05:49:11;;;;;;;5.87;5.40;;;18.10;39.10;;;;;;10347832;28;20314;-71
2021/09/14 05:54:14;;;;;;;5.90;5.50;;;18.10;39.60;;;;;;10338778;28;20237;-70
2021/09/14 05:59:17;;;;;;;9.03;6.17;;;18.10;39.20;;;;;;10352485;28;20864;-70
2021/09/14 06:04:22;;;;;;;6.80;6.20;;;18.10;39.50;;;;;;10348043;28;20227;-70
2021/09/14 06:09:25;;;;;;;7.13;5.90;;;18.20;40.00;;;;;;10352460;28;20232;-70
2021/09/14 06:14:29;;;;;;;6.90;6.30;;;18.20;39.70;;;;;;10351475;28;20235;-70
2021/09/14 06:19:33;;;;;;;7.03;6.37;;;18.20;39.80;;;;;;10344891;28;20244;-71
2021/09/14 06:24:38;;;;;;;7.57;6.97;;;18.30;40.50;;;;;;10352438;28;20226;-69
2021/09/14 06:29:42;;;;;;;9.20;8.30;;;18.40;40.30;;;;;;10346672;28;20251;-70
2021/09/14 06:34:49;;;;;;;8.83;8.17;;;18.40;40.30;;;;;;10345925;28;20230;-69
2021/09/14 06:39:52;;;;;;;9.43;8.23;;;18.50;41.00;;;;;;10347340;28;20249;-70
2021/09/14 06:44:55;;;;;;;9.33;8.63;;;18.50;40.80;;;;;;10356379;23;20222;-75
2021/09/14 06:50:00;;;;;;;9.27;8.47;;;18.60;40.80;;;;;;10351807;28;20225;-74
2021/09/14 06:55:12;;;;;;;10.80;9.97;;;18.70;41.80;;;;;;10331452;28;20326;-74
2021/09/14 07:00:16;;;;;;;11.93;10.93;;;18.80;41.60;;;;;;10314684;28;20226;-74
2021/09/14 07:05:20;;;;;;;9.97;9.17;;;18.80;41.90;;;;;;10312516;28;20241;-75
2021/09/14 07:10:23;;;;;;;11.53;9.50;;;18.90;42.60;;;;;;10322584;28;20762;-73
2021/09/14 07:15:27;;;;;;;11.80;10.87;;;19.00;42.20;;;;;;10329034;28;20253;-73
2021/09/14 07:20:32;;;;;;;11.83;10.90;;;19.10;42.50;;;;;;10319746;28;20238;-74
2021/09/14 07:25:39;;;;;;;12.47;11.37;;;19.30;44.00;;;;;;10322269;28;20318;-74
2021/09/14 07:30:42;;;;;;;12.77;11.77;;;19.40;42.70;;;;;;10320404;28;20227;-73
2021/09/14 07:35:47;;;;;;;12.20;10.60;;;19.60;43.00;;;;;;10326414;28;20226;-75
2021/09/14 07:40:50;;;;;;;10.90;9.67;;;19.70;43.50;;;;;;10326447;28;20250;-74
2021/09/14 07:45:53;;;;;;;11.47;10.57;;;19.90;43.20;;;;;;10329702;28;20219;-74
2021/09/14 07:50:58;;;;;;;12.67;11.67;;;20.10;43.60;;;;;;10334282;28;20244;-74
2021/09/14 07:56:01;;;;;;;12.40;11.40;;;20.20;44.60;;;;;;10339128;28;20231;-74
2021/09/14 08:01:04;;;;;;;11.27;10.27;;;20.50;44.40;;;;;;10324924;28;20227;-73
2021/09/14 08:06:10;;;;;;;10.87;9.87;;;20.70;44.40;;;;;;10322009;28;20259;-73
2021/09/14 08:11:13;;;;;;;9.13;8.33;;;21.00;44.80;;;;;;10333557;28;20231;-75
2021/09/14 08:16:17;;;;;;;7.07;6.57;;;21.20;44.60;;;;;;10311230;28;20239;-73
2021/09/14 08:21:23;;;;;;;6.67;6.17;;;21.50;44.70;;;;;;10328147;28;20239;-75
2021/09/14 08:26:26;;;;;;;7.47;6.73;;;21.90;44.40;;;;;;10320654;28;20301;-74
2021/09/14 08:31:29;;;;;;;7.23;6.63;;;22.30;44.00;;;;;;10323880;28;20227;-75
2021/09/14 08:36:34;;;;;;;6.77;6.27;;;22.60;43.80;;;;;;10332577;28;20222;-75
2021/09/14 08:41:38;;;;;;;6.70;6.20;;;22.90;43.70;;;;;;10324139;28;20239;-75
2021/09/14 08:46:43;;;;;;;6.30;5.90;;;23.30;43.40;;;;;;10336503;28;20230;-74
2021/09/14 08:51:48;;;;;;;8.87;6.83;;;23.60;43.10;;;;;;10329667;28;20239;-75
2021/09/14 08:56:51;;;;;;;7.47;6.87;;;23.80;42.60;;;;;;10315856;28;20253;-72
2021/09/14 09:01:57;;;;;;;6.80;6.20;;;24.10;42.60;;;;;;10320782;28;20234;-74
2021/09/14 09:07:02;;;;;;;6.77;6.17;;;24.40;41.90;;;;;;10315818;28;20739;-75
2021/09/14 09:12:08;;;;;;;6.53;5.93;;;24.70;42.00;;;;;;10322770;28;20239;-74
2021/09/14 09:17:13;;;;;;;7.13;6.10;;;24.90;42.20;;;;;;10328020;28;20609;-74
2021/09/14 09:22:18;;;;;;;6.20;5.70;;;25.20;41.00;;;;;;10321359;28;20235;-74
2021/09/14 09:27:23;;;;;;;5.37;5.07;;;25.40;41.20;;;;;;10342387;28;20649;-74
2021/09/14 09:32:27;;;;;;;6.47;5.97;;;25.70;40.40;;;;;;10335473;28;20237;-74
2021/09/14 09:37:31;;;;;;;6.90;6.27;;;25.90;40.00;;;;;;10324979;28;20232;-73
2021/09/14 09:42:34;;;;;;;6.03;5.43;;;26.10;39.80;;;;;;10341290;28;20719;-73
2021/09/14 09:47:38;;;;;;;5.90;5.40;;;26.40;39.50;;;;;;10325798;28;20233;-74
2021/09/14 09:52:44;;;;;;;6.30;5.80;;;26.50;38.90;;;;;;10329494;28;20222;-73
2021/09/14 09:57:49;;;;;;;6.33;5.73;;;26.70;38.00;;;;;;10338138;28;20226;-73
2021/09/14 10:02:55;;;;;;;6.13;5.63;;;26.90;38.20;;;;;;10330919;28;20236;-73
2021/09/14 10:08:06;;;;;;;6.03;5.60;;;27.00;37.80;;;;;;10319467;28;20707;-74
2021/09/14 10:13:11;;;;;;;5.40;4.90;;;27.20;37.50;;;;;;10316762;28;20255;-73
2021/09/14 10:18:14;;;;;;;4.97;4.67;;;27.40;37.10;;;;;;10327511;28;20284;-74
2021/09/14 10:23:20;;;;;;;5.47;4.97;;;27.50;37.00;;;;;;10315490;28;20317;-73
2021/09/14 10:28:23;;;;;;;5.40;5.07;;;27.70;35.80;;;;;;10328121;28;20265;-73
2021/09/14 10:33:28;;;;;;;4.93;4.53;;;27.80;36.40;;;;;;10321990;28;20241;-73
2021/09/14 10:38:47;;;;;;;5.07;4.70;;;28.00;35.70;;;;;;10313815;28;20238;-73
2021/09/14 10:43:57;;;;;;;4.80;4.40;;;28.10;34.40;;;;;;10334590;28;20897;-74
2021/09/14 10:49:01;;;;;;;5.10;4.67;;;28.20;33.90;;;;;;10341261;28;20231;-74
2021/09/14 10:54:06;;;;;;;4.97;4.57;;;28.30;34.60;;;;;;10336592;28;20218;-74
2021/09/14 10:59:16;;;;;;;5.30;4.90;;;28.40;34.20;;;;;;10332566;28;20231;-74
2021/09/14 11:04:27;;;;;;;4.90;4.50;;;28.50;34.50;;;;;;10335336;28;20234;-74
2021/09/14 11:09:32;;;;;;;4.53;4.23;;;28.60;33.10;;;;;;10342685;28;20227;-74
2021/09/14 11:14:36;;;;;;;4.87;4.50;;;28.70;33.00;;;;;;10326681;28;20227;-74
2021/09/14 11:19:39;;;;;;;4.43;4.00;;;28.70;32.80;;;;;;10332929;28;20230;-75
2021/09/14 11:24:52;;;;;;;4.63;4.33;;;28.70;33.20;;;;;;10338568;28;20230;-75
2021/09/14 11:29:57;;;;;;;5.20;4.80;;;28.70;32.30;;;;;;10334641;28;20854;-76
2021/09/14 11:35:02;;;;;;;5.30;4.90;;;28.80;32.90;;;;;;10330283;28;20700;-77
2021/09/14 11:40:17;;;;;;;4.90;4.60;;;28.80;32.70;;;;;;10334646;28;20218;-73
2021/09/14 11:45:24;;;;;;;5.30;4.90;;;28.80;32.00;;;;;;10343665;28;20234;-76
2021/09/14 11:50:29;;;;;;;5.00;4.70;;;28.90;31.70;;;;;;10322007;28;20231;-76
2021/09/14 11:55:34;;;;;;;5.03;4.53;;;28.90;31.70;;;;;;10347995;28;20241;-76
2021/09/14 12:00:39;;;;;;;5.00;4.60;;;28.90;31.00;;;;;;10355035;28;20314;-76
2021/09/14 12:05:53;;;;;;;5.00;4.70;;;28.90;31.50;;;;;;10352154;28;20226;-76
2021/09/14 12:10:59;;;;;;;4.47;4.17;;;28.90;31.30;;;;;;10330747;28;20252;-75
2021/09/14 12:16:08;;;;;;;4.77;4.47;;;29.00;30.90;;;;;;10350355;28;20238;-76
2021/09/14 12:21:12;;;;;;;4.60;4.20;;;29.00;30.80;;;;;;10328687;28;20306;-74
2021/09/14 12:26:21;;;;;;;4.70;4.40;;;29.10;30.90;;;;;;10321783;28;20226;-76
2021/09/14 12:31:26;;;;;;;4.70;4.40;;;29.10;30.10;;;;;;10322460;28;20755;-76
2021/09/14 12:36:29;;;;;;;4.97;4.67;;;29.10;31.00;;;;;;10328459;28;20227;-73
2021/09/14 12:41:34;;;;;;;4.77;4.37;;;29.20;30.90;;;;;;10326605;28;20235;-76
2021/09/14 12:46:38;;;;;;;4.70;4.40;;;29.20;30.20;;;;;;10364650;23;20277;-72
2021/09/14 12:51:41;;;;;;;4.40;4.07;;;29.20;30.50;;;;;;10345628;28;20226;-76
2021/09/14 12:56:46;;;;;;;4.90;4.50;;;29.20;30.10;;;;;;10350047;28;20232;-77
2021/09/14 13:01:49;;;;;;;4.80;4.50;;;29.30;29.90;;;;;;10347428;28;20222;-76
2021/09/14 13:06:52;;;;;;;4.87;4.57;;;29.30;30.10;;;;;;10350477;28;20230;-76
2021/09/14 13:12:00;;;;;;;4.40;4.10;;;29.30;29.90;;;;;;10353547;28;20309;-77
2021/09/14 13:17:04;;;;;;;4.53;4.23;;;29.30;29.40;;;;;;10350707;28;20249;-75
2021/09/14 13:22:07;;;;;;;4.10;3.80;;;29.30;29.70;;;;;;10351076;28;20222;-76
2021/09/14 13:27:11;;;;;;;4.37;4.03;;;29.30;29.40;;;;;;10350718;28;20227;-76
2021/09/14 13:32:15;;;;;;;4.83;4.50;;;29.30;28.60;;;;;;10346998;28;20226;-78
2021/09/14 13:37:19;;;;;;;4.60;4.30;;;29.40;29.20;;;;;;10350747;28;20224;-78
2021/09/14 13:42:25;;;;;;;4.27;3.97;;;29.40;29.10;;;;;;10345929;28;20258;-73
2021/09/14 13:47:28;;;;;;;4.03;3.77;;;29.40;28.40;;;;;;10356407;28;20231;-78
2021/09/14 13:52:32;;;;;;;4.60;4.30;;;29.50;28.60;;;;;;10353864;28;20234;-73
2021/09/14 13:57:37;;;;;;;4.70;4.23;;;29.50;28.40;;;;;;10347546;28;20226;-73
2021/09/14 14:02:41;;;;;;;4.43;4.07;;;29.50;27.80;;;;;;10353953;28;20226;-78
2021/09/14 14:07:44;;;;;;;4.30;4.00;;;29.50;28.30;;;;;;10356420;28;20226;-78
2021/09/14 14:12:49;;;;;;;4.47;4.07;;;29.50;28.30;;;;;;10353671;28;20579;-77
2021/09/14 14:17:52;;;;;;;4.30;3.90;;;29.50;27.70;;;;;;10348708;28;20260;-79
2021/09/14 14:22:55;;;;;;;4.13;3.83;;;29.50;28.00;;;;;;10351158;28;20241;-74
2021/09/14 14:28:00;;;;;;;4.23;3.93;;;29.50;28.00;;;;;;10352573;28;20222;-74
2021/09/14 14:33:03;;;;;;;4.27;3.97;;;29.50;27.50;;;;;;10353600;28;20224;-73
2021/09/14 14:38:07;;;;;;;4.07;3.77;;;29.50;27.90;;;;;;10353564;28;20225;-76
2021/09/14 14:43:11;;;;;;;4.00;3.70;;;29.50;28.00;;;;;;10354951;28;20230;-74
2021/09/14 14:48:14;;;;;;;4.20;3.90;;;29.50;27.30;;;;;;10347467;28;20598;-73
2021/09/14 14:53:18;;;;;;;4.10;3.80;;;29.50;27.70;;;;;;10347821;28;20599;-73
2021/09/14 14:58:23;;;;;;;4.20;3.90;;;29.60;27.80;;;;;;10346860;28;20587;-73
2021/09/14 15:03:27;;;;;;;4.70;4.40;;;29.60;27.40;;;;;;10349486;28;20252;-74
2021/09/14 15:08:30;;;;;;;4.53;4.20;;;29.70;27.60;;;;;;10345546;28;20297;-74
2021/09/14 15:13:34;;;;;;;4.07;3.77;;;29.70;27.60;;;;;;10344698;28;20229;-73
2021/09/14 15:18:38;;;;;;;4.70;4.30;;;29.80;27.30;;;;;;10330980;28;20252;-74
2021/09/14 15:23:41;;;;;;;4.60;4.30;;;29.80;27.50;;;;;;10341631;28;20226;-78
2021/09/14 15:28:45;;;;;;;4.43;4.00;;;29.80;27.20;;;;;;10344022;28;20262;-79
2021/09/14 15:33:49;;;;;;;4.50;4.20;;;29.80;26.90;;;;;;10350863;28;20226;-79
2021/09/14 15:38:53;;;;;;;4.40;4.10;;;29.80;27.20;;;;;;10351061;28;20241;-76
2021/09/14 15:43:59;;;;;;;5.07;4.07;;;29.80;27.40;;;;;;10355603;28;20234;-76
2021/09/14 15:49:02;;;;;;;4.57;4.23;;;29.80;27.10;;;;;;10354164;28;20227;-76
2021/09/14 15:54:06;;;;;;;4.77;4.37;;;29.70;27.40;;;;;;10356143;28;20234;-75
2021/09/14 15:59:10;;;;;;;5.30;4.87;;;29.70;27.40;;;;;;10357896;28;20735;-76
2021/09/14 16:04:13;;;;;;;4.90;4.50;;;29.60;27.30;;;;;;10355769;28;20234;-75
2021/09/14 16:09:17;;;;;;;5.27;4.50;;;29.50;27.70;;;;;;10353824;28;20739;-77
2021/09/14 16:14:23;;;;;;;5.20;4.70;;;29.50;28.10;;;;;;10346521;28;20579;-76
2021/09/14 16:19:27;;;;;;;4.67;4.37;;;29.40;28.10;;;;;;10355582;28;20781;-75
2021/09/14 16:24:30;;;;;;;5.47;4.97;;;29.40;28.20;;;;;;10351153;28;20244;-76
2021/09/14 16:29:35;;;;;;;5.57;5.07;;;29.30;28.30;;;;;;10352473;28;20232;-75
2021/09/14 16:34:39;;;;;;;5.63;5.20;;;29.20;28.60;;;;;;10353760;28;20330;-79
2021/09/14 16:39:42;;;;;;;6.07;5.57;;;29.10;28.50;;;;;;10353776;28;20236;-79
2021/09/14 16:44:48;;;;;;;5.90;5.40;;;29.10;28.50;;;;;;10357324;28;20324;-79
2021/09/14 16:49:52;;;;;;;5.97;5.37;;;29.00;28.60;;;;;;10358555;28;20233;-79
2021/09/14 16:54:56;;;;;;;5.30;4.90;;;28.90;28.70;;;;;;10357622;28;20233;-79
2021/09/14 17:00:02;;;;;;;5.30;4.90;;;28.80;28.90;;;;;;10345486;28;20265;-78
2021/09/14 17:05:08;;;;;;;5.50;5.00;;;28.70;29.00;;;;;;10346580;28;20223;-77
2021/09/14 17:10:12;;;;;;;5.20;4.80;;;28.60;29.20;;;;;;10353307;28;20716;-77
2021/09/14 17:15:17;;;;;;;5.70;5.27;;;28.50;29.40;;;;;;10345694;28;20233;-75
2021/09/14 17:20:20;;;;;;;6.10;5.50;;;28.30;29.70;;;;;;10354354;28;20661;-81
2021/09/14 17:25:24;;;;;;;5.70;5.30;;;28.20;29.70;;;;;;10354818;28;20237;-81
2021/09/14 17:30:28;;;;;;;5.50;5.07;;;28.10;29.90;;;;;;10333981;28;20226;-81
2021/09/14 17:35:31;;;;;;;6.10;5.50;;;28.00;30.20;;;;;;10340957;28;20234;-80
2021/09/14 17:40:35;;;;;;;5.87;5.10;;;27.90;30.10;;;;;;10348201;28;20229;-81
2021/09/14 17:45:39;;;;;;;5.50;5.00;;;27.80;30.10;;;;;;10346779;28;20227;-81
2021/09/14 17:50:43;;;;;;;6.33;5.73;;;27.70;30.00;;;;;;10343972;28;20226;-81
2021/09/14 17:55:47;;;;;;;5.37;4.93;;;27.60;30.00;;;;;;10343659;28;20230;-82
2021/09/14 18:00:52;;;;;;;5.50;5.07;;;27.60;30.00;;;;;;10340709;28;20219;-77
2021/09/14 18:05:57;;;;;;;5.87;5.27;;;27.50;30.40;;;;;;10328231;28;20230;-76
2021/09/14 18:11:00;;;;;;;5.60;5.10;;;27.30;30.10;;;;;;10329157;28;20252;-76
2021/09/14 18:16:05;;;;;;;5.83;5.23;;;27.20;30.30;;;;;;10327659;28;20326;-76
2021/09/14 18:21:16;;;;;;;6.30;5.80;;;27.10;30.90;;;;;;10329190;28;20248;-77
2021/09/14 18:26:20;;;;;;;6.33;5.70;;;27.00;31.20;;;;;;10327544;28;20305;-76
2021/09/14 18:31:27;;;;;;;6.37;5.70;;;26.80;30.90;;;;;;10339848;28;20245;-76
2021/09/14 18:36:32;;;;;;;6.00;5.50;;;26.70;31.30;;;;;;10333975;28;20237;-76
2021/09/14 18:41:37;;;;;;;6.27;5.77;;;26.70;30.50;;;;;;10339275;28;20222;-76
2021/09/14 18:46:44;;;;;;;6.23;5.73;;;26.50;31.30;;;;;;10333030;28;20245;-77
2021/09/14 18:51:49;;;;;;;6.00;5.53;;;26.40;31.40;;;;;;10331927;28;20642;-75
2021/09/14 18:56:54;;;;;;;5.60;5.10;;;26.40;31.40;;;;;;10338164;28;20230;-75
2021/09/14 19:02:15;;;;;;;6.20;5.57;;;26.30;31.40;;;;;;10336824;28;20599;-75
2021/09/14 19:07:20;;;;;;;6.27;5.60;;;26.10;31.70;;;;;;10347010;28;20229;-75
2021/09/14 19:12:25;;;;;;;7.27;6.60;;;26.00;31.50;;;;;;10344943;28;20905;-77
2021/09/14 19:17:32;;;;;;;6.27;5.87;;;26.00;31.60;;;;;;10353543;28;20642;-77
2021/09/14 19:22:37;;;;;;;6.13;5.73;;;25.80;32.20;;;;;;10346969;28;20258;-77
2021/09/14 19:27:43;;;;;;;6.73;6.23;;;25.70;32.00;;;;;;10351460;28;20863;-79
2021/09/14 19:32:52;;;;;;;6.53;5.93;;;25.60;32.30;;;;;;10338166;28;20317;-77
2021/09/14 19:49:14;;;;;;;6.97;6.30;;;25.30;32.70;;;;;;10339962;28;20230;-77
2021/09/14 19:55:25;;;;;;;7.40;6.83;;;25.00;32.70;;;;;;10346092;28;20233;-78
2021/09/14 20:00:48;;;;;;;8.63;7.83;;;24.90;32.60;;;;;;10329118;28;20222;-81
2021/09/14 20:12:40;;;;;;;8.53;7.83;;;24.40;33.20;;;;;;10118252;29;20319;-78
2021/09/14 20:17:46;;;;;;;8.10;7.53;;;24.20;33.90;;;;;;10175345;29;20392;-78
2021/09/14 20:22:50;;;;;;;7.80;7.20;;;24.10;33.70;;;;;;10190738;28;20267;-78
2021/09/14 20:27:54;;;;;;;7.47;6.97;;;24.00;33.80;;;;;;10190406;29;20229;-80
2021/09/14 20:32:58;;;;;;;7.40;6.90;;;23.90;34.00;;;;;;10192144;29;20236;-78
2021/09/14 20:38:01;;;;;;;7.53;6.77;;;23.90;33.90;;;;;;10191320;29;20248;-78
2021/09/14 20:43:05;;;;;;;7.83;7.13;;;23.80;34.00;;;;;;10191181;29;20774;-78
2021/09/14 20:48:08;;;;;;;7.47;6.87;;;23.70;34.50;;;;;;10258766;28;20226;-77
2021/09/14 20:53:12;;;;;;;7.60;6.93;;;23.60;34.00;;;;;;10352326;28;20230;-78
2021/09/14 20:58:17;;;;;;;7.60;7.00;;;23.60;34.10;;;;;;10349235;28;20951;-77
2021/09/14 21:03:20;;;;;;;6.87;6.37;;;23.40;34.60;;;;;;10348447;28;20234;-78
2021/09/14 21:08:23;;;;;;;6.90;6.20;;;23.30;34.10;;;;;;10352307;28;20234;-78
2021/09/14 21:13:28;;;;;;;7.37;6.83;;;23.30;34.40;;;;;;10353052;28;20242;-78
2021/09/14 21:18:31;;;;;;;7.60;7.00;;;23.20;35.00;;;;;;10350364;28;20230;-78
2021/09/14 21:23:34;;;;;;;7.87;7.23;;;23.10;34.70;;;;;;10349350;28;20238;-80
2021/09/14 21:28:39;;;;;;;7.73;7.07;;;23.10;34.80;;;;;;10348758;28;20230;-80
2021/09/14 21:33:42;;;;;;;7.63;7.10;;;23.00;35.90;;;;;;10348175;28;20239;-78
2021/09/14 21:38:45;;;;;;;8.47;7.77;;;22.80;34.70;;;;;;10346836;28;20743;-80
2021/09/14 21:43:49;;;;;;;8.40;7.77;;;22.80;35.10;;;;;;10350699;28;20230;-78
2021/09/14 21:48:53;;;;;;;7.50;6.90;;;22.70;35.50;;;;;;10349219;28;20230;-77
2021/09/14 21:53:56;;;;;;;7.57;6.97;;;22.60;35.10;;;;;;10349051;28;20234;-78
2021/09/14 21:59:01;;;;;;;7.50;6.80;;;22.50;35.40;;;;;;10339429;28;20569;-78
2021/09/14 22:04:04;;;;;;;7.67;7.00;;;22.50;35.80;;;;;;10345400;28;20218;-77
2021/09/14 22:09:08;;;;;;;7.87;7.27;;;22.40;35.60;;;;;;10343858;28;20268;-78
2021/09/14 22:14:12;;;;;;;8.70;8.00;;;22.30;35.70;;;;;;10338521;28;20234;-77
2021/09/14 22:19:16;;;;;;;7.47;6.83;;;22.20;36.40;;;;;;10345752;28;20236;-80
2021/09/14 22:24:19;;;;;;;8.70;8.03;;;22.10;36.00;;;;;;10340850;28;20237;-80
2021/09/14 22:29:23;;;;;;;7.83;7.23;;;22.00;36.40;;;;;;10352161;28;20235;-79
2021/09/14 22:34:26;;;;;;;9.23;8.43;;;22.00;36.70;;;;;;10351362;28;20234;-77
2021/09/14 22:39:30;;;;;;;8.57;7.97;;;22.00;36.50;;;;;;10364949;28;20226;-78
2021/09/14 22:44:34;;;;;;;9.20;8.50;;;22.00;36.50;;;;;;10360556;28;20229;-77
2021/09/14 22:49:37;;;;;;;9.73;8.93;;;22.00;37.30;;;;;;10362844;28;20238;-77
2021/09/14 22:54:41;;;;;;;9.40;8.57;;;22.00;37.10;;;;;;10363482;28;20269;-77
2021/09/14 22:59:45;;;;;;;10.07;9.17;;;21.90;37.20;;;;;;10364010;28;20225;-77
2021/09/14 23:04:48;;;;;;;9.20;8.43;;;21.80;38.10;;;;;;10371510;28;20225;-80
2021/09/14 23:09:51;;;;;;;8.80;8.10;;;21.80;37.60;;;;;;10374768;28;20257;-80
2021/09/14 23:14:56;;;;;;;9.33;8.47;;;21.80;37.90;;;;;;10371981;28;20649;-80
2021/09/14 23:19:59;;;;;;;8.70;8.10;;;21.80;38.10;;;;;;10368274;28;20226;-77
2021/09/14 23:25:04;;;;;;;8.97;8.17;;;21.80;38.10;;;;;;10365192;28;20241;-80
2021/09/14 23:30:10;;;;;;;8.87;8.17;;;21.70;38.00;;;;;;10357967;28;20226;-77
2021/09/14 23:35:13;;;;;;;8.73;8.03;;;21.70;38.00;;;;;;10357241;28;20230;-80
2021/09/14 23:40:16;;;;;;;9.63;8.77;;;21.70;38.00;;;;;;10366095;28;20697;-80
2021/09/14 23:45:21;;;;;;;9.30;8.40;;;21.80;38.10;;;;;;10362749;28;20222;-80
2021/09/14 23:50:24;;;;;;;9.77;8.87;;;21.80;38.10;;;;;;10362733;28;20230;-80
2021/09/14 23:55:27;;;;;;;9.50;8.60;;;21.80;38.10;;;;;;10357346;28;20223;-78
